• Join FlightAware (Why Join?)
  • Login
  • US Flag 
01:09PM EDT


 

Airport Tracker/Info


-or-


 

Live Flight TrackerFlight Track Log ✈ N640SP ✈ 27-Jun-2013 ✈ KNSE - KCLW

Flight Track Log - Related Links

Times and Time Zones

All times are in EDT time to prevent confusion due to time zone crossing. See the N640SP flight status page for this flight to view local times or setup timezone preferences in your user account.

Time Position Orientation Groundspeed Altitude Reporting Facility
EDT Latitude Longitude Course Direction KTS MPH feet Rate Location/Type
02:55PM 30.8008 -86.0728 125° Southeast 127 146 2,700  Level Jacksonville Center
02:57PM 30.7589 -86.0014 124° Southeast 127 146 2,600 -120 Descending Jacksonville Center
02:58PM 30.7514 -85.9625 103° East 127 146 2,500 -60 Descending Jacksonville Center
02:59PM 30.7567 -85.9214 81° East 127 146 2,500  Level Jacksonville Center
03:00PM 30.7597 -85.8806 85° East 127 146 2,500 -60 Level Jacksonville Center
03:01PM 30.7669 -85.8372 79° East 128 147 2,400  Descending Jacksonville Center
03:02PM 30.0973 -86.0130 125° Southeast  Level Estimated
03:02PM 30.7742 -85.8011 77° East 125 144 2,500  Level Jacksonville Center
03:03PM 30.7811 -85.7603 79° East 125 144 2,600  Climbing Jacksonville Center
03:04PM 30.7864 -85.7194 81° East 128 147 2,600  Level Jacksonville Center
03:05PM 30.7936 -85.6761 79° East 133 153 2,600  Level Jacksonville Center
03:06PM 30.7925 -85.6325 92° East 133 153 2,600 -60 Level Jacksonville Center
03:07PM 30.7911 -85.5914 92° East 134 154 2,500 -60 Descending Jacksonville Center
03:08PM 30.7839 -85.5475 101° East 130 150 2,500  Level Jacksonville Center
03:09PM 30.7825 -85.5039 92° East 130 150 2,500  Level Jacksonville Center
03:10PM 30.7875 -85.4631 82° East 131 151 2,500  Level Jacksonville Center
03:11PM 30.7886 -85.4172 88° East 133 153 2,500  Level Jacksonville Center
03:12PM 30.7914 -85.3761 85° East 133 153 2,500 -60 Level Jacksonville Center
03:13PM 30.7903 -85.3303 92° East 131 151 2,400 -60 Descending Jacksonville Center
03:14PM 30.7889 -85.2889 92° East 130 150 2,400  Level Jacksonville Center
03:15PM 30.7833 -85.2478 99° East 129 148 2,400 -60 Level Jacksonville Center
03:16PM 30.7822 -85.2042 92° East 132 152 2,300 -60 Descending Jacksonville Center
03:17PM 30.7828 -85.1608 89° East 129 148 2,300  Level Jacksonville Center
03:19PM 30.7765 -85.1098 139° Southeast  Level FlightAware Approximate
03:26PM 30.5822 -84.9390 144° Southeast  Level FlightAware Approximate
03:27PM 30.5540 -84.9153 144° Southeast  Level FlightAware Approximate
03:28PM 30.5258 -84.8915 144° Southeast  Level FlightAware Approximate
03:29PM 30.4977 -84.8678 144° Southeast  Level FlightAware Approximate
03:30PM 30.4695 -84.8441 144° Southeast  Level FlightAware Approximate
03:31PM 30.4413 -84.8204 144° Southeast  Level FlightAware Approximate
03:32PM 30.4131 -84.7968 144° Southeast  Level FlightAware Approximate
03:33PM 30.3849 -84.7731 144° Southeast  Level FlightAware Approximate
03:34PM 30.3567 -84.7494 144° Southeast  Level FlightAware Approximate
03:35PM 30.3284 -84.7258 144° Southeast  Level FlightAware Approximate
03:36PM 30.3002 -84.7022 144° Southeast  Level FlightAware Approximate
03:37PM 30.2720 -84.6786 144° Southeast  Level FlightAware Approximate
03:38PM 30.2438 -84.6550 144° Southeast  Level FlightAware Approximate
03:39PM 30.2156 -84.6314 144° Southeast  Level FlightAware Approximate
03:40PM 30.1873 -84.6078 144° Southeast  Level FlightAware Approximate
03:41PM 30.1591 -84.5843 144° Southeast  Level FlightAware Approximate
03:42PM 30.1308 -84.5608 144° Southeast  Level FlightAware Approximate
03:43PM 30.1026 -84.5372 144° Southeast  Level FlightAware Approximate
03:44PM 30.0744 -84.5137 144° Southeast  Level FlightAware Approximate
03:45PM 30.0461 -84.4902 144° Southeast  Level FlightAware Approximate
03:46PM 30.0179 -84.4667 144° Southeast  Level FlightAware Approximate
03:47PM 29.9896 -84.4433 144° Southeast  Level FlightAware Approximate
03:48PM 29.9613 -84.4198 144° Southeast  Level FlightAware Approximate
03:49PM 29.9331 -84.3963 144° Southeast  Level FlightAware Approximate
03:50PM 29.9048 -84.3729 144° Southeast  Level FlightAware Approximate
03:51PM 29.8765 -84.3495 144° Southeast  Level FlightAware Approximate
03:52PM 29.8482 -84.3261 144° Southeast  Level FlightAware Approximate
03:53PM 29.8199 -84.3027 144° Southeast  Level FlightAware Approximate
03:54PM 29.7923 -84.2783 142° Southeast  Level FlightAware Approximate
03:54PM 30.1622 -83.9233 142° Southeast 121 139 2,400  Level Jacksonville Center
03:55PM 29.7647 -84.2539 142° Southeast  Level FlightAware Approximate
03:55PM 30.1458 -83.8894 119° Southeast 121 139 2,300  Level Jacksonville Center
03:56PM 29.7371 -84.2294 142° Southeast  Level FlightAware Approximate
03:57PM 29.7096 -84.2049 142° Southeast  Level FlightAware Approximate
03:57PM 30.0910 -83.8602 155° Southeast  Level Estimated
03:58PM 29.6820 -84.1805 142° Southeast  Level FlightAware Approximate
03:59PM 29.6544 -84.1561 142° Southeast  Level FlightAware Approximate
04:04PM 29.8697 -83.7425 155° Southeast  Level Estimated
04:05PM 29.8381 -83.7258 155° Southeast  Level Estimated
04:06PM 29.8064 -83.7090 155° Southeast  Level Estimated
04:07PM 29.7748 -83.6923 155° Southeast  Level Estimated
04:08PM 29.7432 -83.6755 155° Southeast  Level Estimated
04:09PM 29.7115 -83.6588 155° Southeast  Level Estimated
04:10PM 29.6799 -83.6421 155° Southeast  Level Estimated
04:11PM 29.6483 -83.6254 155° Southeast  Level Estimated
04:12PM 29.6166 -83.6087 155° Southeast  Level Estimated
04:13PM 29.5850 -83.5920 155° Southeast  Level Estimated
04:14PM 29.5533 -83.5753 155° Southeast  Level Estimated
04:15PM 29.5217 -83.5587 155° Southeast  Level Estimated
04:16PM 29.4900 -83.5420 155° Southeast  Level Estimated
04:17PM 29.4584 -83.5254 155° Southeast  Level Estimated
04:18PM 29.4267 -83.5087 155° Southeast  Level Estimated
04:19PM 29.3951 -83.4921 155° Southeast  Level Estimated
04:20PM 29.3634 -83.4755 155° Southeast  Level Estimated
04:21PM 29.3317 -83.4589 155° Southeast  Level Estimated
04:22PM 29.3001 -83.4423 155° Southeast  Level Estimated
04:23PM 29.2684 -83.4257 155° Southeast  Level Estimated
04:24PM 29.2367 -83.4092 155° Southeast  Level Estimated
04:25PM 29.2051 -83.3926 155° Southeast  Level Estimated
04:26PM 29.1734 -83.3761 155° Southeast  Level Estimated
04:27PM 29.1417 -83.3595 155° Southeast  Level Estimated
04:28PM 29.1100 -83.3430 155° Southeast  Level Estimated
04:29PM 29.0784 -83.3265 155° Southeast  Level Estimated
04:30PM 29.0467 -83.3100 156° South  Level Estimated
04:31PM 29.0150 -83.2935 156° South  Level Estimated
04:32PM 28.9833 -83.2770 156° South  Level Estimated
04:33PM 28.9516 -83.2605 156° South  Level Estimated
04:34PM 28.9199 -83.2440 156° South  Level Estimated
04:35PM 28.8883 -83.2276 156° South  Level Estimated
04:36PM 28.8566 -83.2111 156° South  Level Estimated
04:37PM 28.8249 -83.1947 156° South  Level Estimated
04:38PM 28.7932 -83.1782 156° South  Level Estimated
04:39PM 28.7615 -83.1618 156° South  Level Estimated
04:40PM 28.7298 -83.1454 156° South  Level Estimated
04:41PM 28.6981 -83.1290 156° South  Level Estimated
04:42PM 28.6664 -83.1126 156° South  Level Estimated
04:43PM 28.6347 -83.0962 156° South  Level Estimated
04:44PM 28.6029 -83.0799 156° South  Level Estimated
04:45PM 28.5712 -83.0635 156° South  Level Estimated
04:46PM 28.5395 -83.0472 156° South  Level Estimated
04:47PM 28.5078 -83.0308 156° South  Level Estimated
04:48PM 28.4761 -83.0145 156° South  Level Estimated
04:49PM 28.4444 -82.9982 156° South  Level Estimated
04:50PM 28.4127 -82.9819 156° South  Level Estimated
04:51PM 28.3809 -82.9656 156° South  Level Estimated
04:52PM 28.3492 -82.9493 156° South  Level Estimated
04:53PM 28.3175 -82.9330 156° South  Level Estimated
04:54PM 28.2858 -82.9167 156° South  Level Estimated
04:55PM 28.2540 -82.9005 156° South  Level Estimated
04:56PM 28.2223 -82.8842 156° South  Level Estimated
04:57PM 28.1906 -82.8680 156° South  Level Estimated
04:58PM 28.1588 -82.8517 156° South  Level Estimated
04:59PM 28.1271 -82.8355 156° South  Level Estimated
05:00PM 28.0954 -82.8193 156° South  Level Estimated
05:01PM 28.0636 -82.8031 156° South  Level Estimated
05:02PM 28.0319 -82.7869 156° South  Level Estimated
05:03PM 28.0001 -82.7707 156° South  Level Estimated
05:04PM 27.9765 -82.7587 156° South  Level Estimated
05:05PM 27.9765 -82.7587 53° Northeast  Level Estimated
05:06PM 27.9765 -82.7587 53° Northeast  Level Estimated
05:07PM 27.9765 -82.7587 53° Northeast  Level Estimated
05:08PM 27.9765 -82.7587 53° Northeast  Level Estimated
05:09PM 27.9765 -82.7587 53° Northeast  Level Estimated
05:10PM 27.9765 -82.7587 53° Northeast  Level Estimated
05:11PM 27.9765 -82.7587 53° Northeast  Level Estimated
05:12PM 27.9765 -82.7587 53° Northeast  Level Estimated
05:13PM 27.9765 -82.7587 53° Northeast  Level Estimated
05:14PM 27.9765 -82.7587 53° Northeast  Level Estimated